Карточка аэропорта UHPP

Внимание!
Информация на этой странице в стадии наполнения.
Если вы не увидели какой-то информации, или заметили неточность - пожалуйста сообщите нам!
Спасибо!
Команда RU-STAFF
Название аэропортаЕлизово
Название аэропорта (англ.)Yelizovo
Превышение131 ft. (39.9 m.)
Координаты53°10.2', 158°27.6'
Высота перехода2400m
Эшелон переходаQFE > 759 mmHg - FL090; 729 mmHg < QFE < 759 mmHg - FL100; QFE < 729 mmHg - FL110
Коды ответчика6630-6657
Зона ОрВДМагадан РПИ (UHMM)
Данные METARUHPP 230530Z 18003MPS 140V200 9999 BKN021CB 05/01 Q1008 R34L/CLRD60 NOSIG RMK MT OBSC QFE752/1003
Проноз погоды (TAF)UHPP 230134Z 2303/2409 16005G12MPS 9999 BKN025CB TEMPO 2308/2321 0700 FG VV002 BECMG 2404/2406 4000 -SHRA BR BKN010 OVC020CB TEMPO 2406/2409 1000 SHRA BR VV003
NOTAMshow/hide NOTAM
AWOS   TABLE

Информация о ВПП

ВПП Длина ВПП (м.) Покрытие Курс ВПП Частота ILS
34L2500Бетон344108.7
16R2500Бетон164109.9

Диспетчерские позиции

Позывной Наименование органа УВД Частота
UHPP_TWRПетропавловск - Старт118.100
UHPP_R_APPПетропавловск - Круг119.400
UHPP_ATISПетропавловск - АТИС126.800
UHPP_GNDПетропавловск - Руление127.000



Спутниковое изображение